Time;durP1;ratioP1;P1;durP2;ratioP2;P2;SDS_P1;SDS_P2;PMS_P1;PMS_P2;Temp;Humidity;BMP_temperature;BMP_pressure;BME280_temperature;BME280_humidity;BME280_pressure;Samples;Min_cycle;Max_cycle;Signal;HPM_P1;HPM_P2
2023/04/13 00:00:44;;;;;;;;;3.00;2.00;;;;;-146.37;100.00;59337.28;5023764;28;8757;-83
2023/04/13 00:03:11;;;;;;;;;3.75;2.75;;;;;-146.37;100.00;59337.28;5022828;28;8852;-83
2023/04/13 00:05:39;;;;;;;;;4.50;1.50;;;;;-146.37;100.00;59337.28;5021642;28;8764;-82
2023/04/13 00:08:06;;;;;;;;;3.00;1.50;;;;;-146.37;100.00;59337.28;5022867;28;8816;-83
2023/04/13 00:10:35;;;;;;;;;2.25;2.00;;;;;-146.37;100.00;59337.28;5022348;28;8975;-83
2023/04/13 00:13:04;;;;;;;;;1.50;1.50;;;;;-146.37;100.00;59337.28;5023231;28;8995;-82
2023/04/13 00:15:31;;;;;;;;;4.00;2.00;;;;;-146.37;100.00;59337.28;5023166;28;8804;-82
2023/04/13 00:18:04;;;;;;;;;1.50;1.25;;;;;-146.37;100.00;59337.28;5023701;28;8863;-82
2023/04/13 00:20:30;;;;;;;;;2.75;2.25;;;;;-146.37;100.00;59337.28;5022691;28;8848;-83
2023/04/13 00:22:59;;;;;;;;;2.00;2.00;;;;;-146.37;100.00;59337.28;5023493;28;8736;-83
2023/04/13 00:25:24;;;;;;;;;3.00;1.00;;;;;-146.37;100.00;59337.28;5022042;28;9590;-83
2023/04/13 00:27:56;;;;;;;;;3.00;2.33;;;;;-146.37;100.00;59337.28;5034427;28;8827;-83
2023/04/13 00:30:25;;;;;;;;;4.50;1.75;;;;;-146.37;100.00;59337.28;5045223;28;8799;-83
2023/04/13 00:32:50;;;;;;;;;1.50;1.25;;;;;-146.37;100.00;59337.28;5061947;28;8735;-82
2023/04/13 00:35:18;;;;;;;;;3.67;2.00;;;;;-146.37;100.00;59337.28;5062773;28;8833;-82
2023/04/13 00:37:46;;;;;;;;;2.75;2.00;;;;;-146.37;100.00;59337.28;5045056;28;8974;-82
2023/04/13 00:40:15;;;;;;;;;7.50;2.25;;;;;-146.37;100.00;59337.28;5045693;28;8823;-83
2023/04/13 00:42:49;;;;;;;;;1.25;1.25;;;;;-146.37;100.00;59337.28;5064472;28;8809;-82
2023/04/13 00:45:16;;;;;;;;;6.25;3.25;;;;;-146.37;100.00;59337.28;5066522;28;8805;-83
2023/04/13 00:47:47;;;;;;;;;4.50;4.00;;;;;-146.37;100.00;59337.28;5082350;28;8797;-83
2023/04/13 00:50:14;;;;;;;;;3.75;2.00;;;;;-146.37;100.00;59337.28;5063545;28;8828;-83
2023/04/13 00:52:44;;;;;;;;;2.75;2.00;;;;;-146.37;100.00;59337.28;5065017;28;8734;-83
2023/04/13 00:55:11;;;;;;;;;3.75;2.75;;;;;-146.37;100.00;59337.28;5083804;28;9634;-83
2023/04/13 00:57:39;;;;;;;;;3.00;3.00;;;;;-146.37;100.00;59337.28;5082604;28;8776;-82
2023/04/13 01:00:08;;;;;;;;;3.50;2.00;;;;;-146.37;100.00;59337.28;5066061;28;8744;-82
2023/04/13 01:02:35;;;;;;;;;3.50;3.25;;;;;-146.37;100.00;59337.28;5065202;28;8821;-83
2023/04/13 01:05:02;;;;;;;;;1.25;0.75;;;;;-146.37;100.00;59337.28;5083933;28;8745;-83
2023/04/13 01:07:40;;;;;;;;;5.00;3.50;;;;;-146.37;100.00;59337.28;5065109;28;8819;-83
2023/04/13 01:10:18;;;;;;;;;6.25;3.75;;;;;-146.37;100.00;59337.28;5081008;28;8720;-82
2023/04/13 01:13:09;;;;;;;;;2.25;2.25;;;;;-146.37;100.00;59337.28;5064807;28;8738;-82
2023/04/13 01:15:38;;;;;;;;;2.50;2.50;;;;;-146.37;100.00;59337.28;5080616;28;8738;-82
2023/04/13 01:18:10;;;;;;;;;7.50;4.00;;;;;-146.37;100.00;59337.28;5064381;28;8762;-82
2023/04/13 01:20:39;;;;;;;;;3.00;3.00;;;;;-146.37;100.00;59337.28;5064892;28;8896;-82
2023/04/13 01:23:08;;;;;;;;;5.00;3.25;;;;;-146.37;100.00;59337.28;5066423;28;8753;-83
2023/04/13 01:26:07;;;;;;;;;5.25;3.25;;;;;10.74;100.00;99633.50;5081935;28;27813;-82
2023/04/13 01:28:39;;;;;;;;;2.00;2.00;;;;;10.69;100.00;99651.25;5052840;28;28702;-84
2023/04/13 01:31:10;;;;;;;;;3.67;3.67;;;;;10.67;100.00;99642.41;5065975;28;28477;-83
2023/04/13 01:33:38;;;;;;;;;3.00;3.00;;;;;10.72;100.00;99637.94;5049075;28;28554;-82
2023/04/13 01:36:04;;;;;;;;;2.75;2.50;;;;;10.70;100.00;99639.72;5046189;28;27966;-82
2023/04/13 01:38:30;;;;;;;;;1.67;1.67;;;;;10.68;100.00;99625.53;5046623;28;27996;-83
2023/04/13 01:44:17;;;;;;;;;8.33;2.33;;;;;10.57;100.00;99639.75;5065815;28;28165;-83
2023/04/13 01:46:52;;;;;;;;;2.33;2.33;;;;;10.71;100.00;99646.81;5065648;28;27809;-81
2023/04/13 01:49:19;;;;;;;;;5.33;5.33;;;;;10.63;100.00;99652.16;5066708;28;28459;-82
2023/04/13 01:51:47;;;;;;;;;6.00;3.00;;;;;10.54;100.00;99649.50;5049191;28;29914;-82
2023/04/13 01:57:38;;;;;;;;;4.00;2.00;;;;;10.58;100.00;99665.47;5067211;28;28409;-83
2023/04/13 02:00:10;;;;;;;;;6.00;3.67;;;;;10.61;100.00;99673.41;5066716;28;27848;-82
2023/04/13 02:02:36;;;;;;;;;3.33;3.33;;;;;10.53;100.00;99679.66;5049466;28;29953;-83
2023/04/13 02:05:02;;;;;;;;;3.00;3.00;;;;;10.46;100.00;99668.13;5066500;28;28984;-82
2023/04/13 02:07:29;;;;;;;;;2.00;2.00;;;;;10.56;100.00;99669.00;5049654;28;28041;-82
2023/04/13 02:09:55;;;;;;;;;2.00;2.00;;;;;10.59;100.00;99679.66;5049025;28;28873;-83
2023/04/13 02:12:21;;;;;;;;;5.00;4.67;;;;;10.50;100.00;99675.25;5066582;28;28643;-83
2023/04/13 02:14:48;;;;;;;;;2.00;2.00;;;;;10.60;100.00;99679.66;5048793;28;28691;-82
2023/04/13 02:17:14;;;;;;;;;5.00;2.33;;;;;10.47;100.00;99691.19;5049056;28;28802;-83
2023/04/13 02:19:39;;;;;;;;;2.33;2.00;;;;;10.42;100.00;99677.00;5064461;28;27987;-83
2023/04/13 02:22:06;;;;;;;;;3.67;3.67;;;;;10.46;100.00;99684.09;5062651;28;28078;-82
2023/04/13 02:24:31;;;;;;;;;5.33;3.00;;;;;10.41;100.00;99683.22;5047323;28;28475;-82
2023/04/13 02:26:57;;;;;;;;;3.00;2.00;;;;;10.44;100.00;99696.50;5027114;28;27956;-83
2023/04/13 02:29:22;;;;;;;;;4.00;3.00;;;;;10.51;100.00;99700.06;5023284;28;28569;-83
2023/04/13 02:31:49;;;;;;;;;6.67;3.00;;;;;10.47;100.00;99696.50;5025513;28;28590;-83
2023/04/13 02:34:14;;;;;;;;;3.33;2.00;;;;;10.54;100.00;99697.38;5026058;28;28597;-83
2023/04/13 02:36:40;;;;;;;;;3.67;2.00;;;;;10.60;100.00;99695.59;5025276;28;27794;-81
2023/04/13 02:39:06;;;;;;;;;3.00;2.00;;;;;10.63;100.00;99691.16;5024255;28;27913;-82
2023/04/13 02:41:33;;;;;;;;;1.00;1.00;;;;;10.68;100.00;99705.31;5024603;28;28123;-83
2023/04/13 02:43:58;;;;;;;;;2.67;2.67;;;;;10.69;100.00;99718.59;5031246;28;28956;-83
2023/04/13 02:46:24;;;;;;;;;7.00;2.00;;;;;10.68;100.00;99716.81;5044470;28;28903;-82
2023/04/13 02:48:49;;;;;;;;;6.00;2.33;;;;;10.68;100.00;99715.94;5045613;28;28488;-82
2023/04/13 02:51:15;;;;;;;;;4.00;4.00;;;;;10.61;100.00;99723.06;5047172;28;28429;-82
2023/04/13 02:53:42;;;;;;;;;2.00;2.00;;;;;10.70;100.00;99730.13;5045244;28;29563;-83
2023/04/13 02:56:08;;;;;;;;;3.00;2.00;;;;;10.55;100.00;99717.75;5062882;28;27989;-82
2023/04/13 02:58:34;;;;;;;;;2.33;2.00;;;;;10.53;100.00;99716.88;5044994;28;28581;-82
2023/04/13 03:00:59;;;;;;;;;5.00;3.00;;;;;10.47;100.00;99722.22;5045896;28;29048;-82
2023/04/13 03:03:27;;;;;;;;;3.33;3.33;;;;;10.51;100.00;99719.53;5042927;28;28587;-83
2023/04/13 03:05:52;;;;;;;;;1.00;1.00;;;;;10.39;100.00;99716.91;5044505;28;27956;-83
2023/04/13 03:08:17;;;;;;;;;3.00;3.00;;;;;10.36;100.00;99724.88;5043858;28;27904;-84
2023/04/13 03:10:51;;;;;;;;;3.33;2.00;;;;;10.31;100.00;99702.75;5044236;28;28527;-82
2023/04/13 03:13:16;;;;;;;;;2.33;2.33;;;;;10.35;100.00;99728.44;5042954;28;29060;-82
2023/04/13 03:15:43;;;;;;;;;2.67;2.00;;;;;10.42;100.00;99724.84;5043574;28;27834;-82
2023/04/13 03:18:09;;;;;;;;;5.00;3.67;;;;;10.30;100.00;99724.88;5043282;28;28444;-83
2023/04/13 03:20:34;;;;;;;;;3.67;2.00;;;;;10.25;100.00;99721.31;5058165;28;31087;-82
2023/04/13 03:23:00;;;;;;;;;3.33;2.00;;;;;10.26;100.00;99733.72;5041284;28;28874;-83
2023/04/13 03:25:26;;;;;;;;;5.00;1.00;;;;;10.21;100.00;99725.75;5042841;28;28469;-83
2023/04/13 03:27:51;;;;;;;;;1.33;1.33;;;;;10.23;100.00;99723.97;5045265;28;28532;-82
2023/04/13 03:30:17;;;;;;;;;8.00;4.00;;;;;10.20;100.00;99730.19;5047097;28;30783;-82
2023/04/13 03:32:43;;;;;;;;;3.00;2.67;;;;;10.15;100.00;99726.63;5047434;28;29421;-83
2023/04/13 03:35:09;;;;;;;;;2.00;1.00;;;;;10.14;100.00;99729.28;5065420;28;27866;-82
2023/04/13 03:37:41;;;;;;;;;2.67;1.00;;;;;10.15;100.00;99721.31;5047017;28;28419;-83
2023/04/13 03:40:09;;;;;;;;;1.00;1.00;;;;;10.11;100.00;99724.00;5065475;28;28519;-83
2023/04/13 03:42:35;;;;;;;;;3.67;1.67;;;;;10.08;100.00;99732.84;5048008;28;28810;-83
2023/04/13 03:45:01;;;;;;;;;3.33;1.00;;;;;10.02;100.00;99728.41;5065721;28;27876;-81
2023/04/13 03:47:26;;;;;;;;;8.00;3.00;;;;;10.00;100.00;99732.84;5047424;28;28461;-82
2023/04/13 03:49:51;;;;;;;;;4.67;2.00;;;;;9.98;100.00;99720.47;5062123;28;30258;-82
2023/04/13 03:52:17;;;;;;;;;3.00;2.00;;;;;9.97;100.00;99727.50;5046856;28;28494;-82
2023/04/13 03:54:42;;;;;;;;;5.00;3.00;;;;;9.98;100.00;99733.75;5065358;28;28723;-82
2023/04/13 03:57:08;;;;;;;;;3.00;1.33;;;;;9.92;100.00;99739.94;5048857;28;28451;-82
2023/04/13 03:59:33;;;;;;;;;6.00;6.00;;;;;9.90;100.00;99740.81;5047423;28;29861;-82
2023/04/13 04:02:01;;;;;;;;;2.00;2.00;;;;;9.92;100.00;99745.25;5047172;28;28741;-82
2023/04/13 04:04:27;;;;;;;;;1.33;1.33;;;;;9.90;100.00;99757.63;5046137;28;27863;-83
2023/04/13 04:06:52;;;;;;;;;1.00;1.00;;;;;9.89;100.00;99754.97;5046559;28;28458;-82
2023/04/13 04:09:20;;;;;;;;;2.00;2.00;;;;;9.85;100.00;99745.22;5047670;28;30022;-83
2023/04/13 04:11:46;;;;;;;;;2.00;2.00;;;;;9.84;100.00;99754.06;5047255;28;28769;-83
2023/04/13 04:14:11;;;;;;;;;4.67;3.33;;;;;9.83;100.00;99761.16;5066770;28;28410;-82
2023/04/13 04:16:37;;;;;;;;;7.00;3.00;;;;;9.80;100.00;99756.72;5047086;28;28379;-82
2023/04/13 04:19:03;;;;;;;;;4.00;2.67;;;;;9.84;100.00;99754.97;5045855;28;30006;-83
2023/04/13 04:21:35;;;;;;;;;3.67;3.00;;;;;9.78;100.00;99777.09;5046547;28;28494;-83
2023/04/13 04:24:04;;;;;;;;;6.00;3.33;;;;;9.80;100.00;99769.13;5064065;28;27825;-82
2023/04/13 04:26:36;;;;;;;;;2.67;1.67;;;;;9.77;100.00;99777.94;5048231;28;28632;-82
2023/04/13 04:29:02;;;;;;;;;3.00;1.00;;;;;9.77;100.00;99779.72;5061734;28;28069;-83
2023/04/13 04:31:33;;;;;;;;;3.33;2.00;;;;;9.92;100.00;99779.78;5061837;28;28474;-83
2023/04/13 04:34:02;;;;;;;;;2.33;2.33;;;;;9.80;100.00;99785.06;5047767;28;29561;-82
2023/04/13 04:36:27;;;;;;;;;3.33;2.67;;;;;9.79;100.00;99786.81;5045900;28;27878;-82
2023/04/13 04:42:17;;;;;;;;;6.00;3.00;;;;;9.68;100.00;99788.56;5062645;28;28467;-83
2023/04/13 04:44:43;;;;;;;;;1.33;0.00;;;;;9.65;100.00;99787.66;5063171;28;28864;-82
2023/04/13 04:47:12;;;;;;;;;4.00;4.00;;;;;9.76;100.00;99797.44;5064675;28;27742;-83
2023/04/13 04:49:37;;;;;;;;;2.00;2.00;;;;;9.68;100.00;99799.19;5063470;28;28628;-83
2023/04/13 04:52:03;;;;;;;;;2.00;2.00;;;;;9.60;100.00;99792.97;5044772;28;28986;-82
2023/04/13 04:54:28;;;;;;;;;2.67;2.67;;;;;9.63;100.00;99797.41;5047594;28;27849;-82
2023/04/13 04:56:56;;;;;;;;;2.67;2.67;;;;;9.65;100.00;99803.59;5062233;28;28781;-83
2023/04/13 04:59:22;;;;;;;;;2.33;2.00;;;;;9.65;100.00;99809.78;5045666;28;30060;-83
2023/04/13 05:01:48;;;;;;;;;1.67;1.33;;;;;9.60;100.00;99803.59;5067092;28;27832;-82
2023/04/13 05:04:15;;;;;;;;;4.67;3.00;;;;;9.64;100.00;99808.03;5048988;28;28534;-83
2023/04/13 05:06:40;;;;;;;;;2.67;2.00;;;;;9.58;100.00;99808.91;5067662;28;28607;-85
2023/04/13 05:09:07;;;;;;;;;3.00;1.67;;;;;9.63;100.00;99815.97;5048602;28;29711;-83
2023/04/13 05:11:33;;;;;;;;;4.00;2.33;;;;;9.57;100.00;99816.84;5051255;28;28661;-83
2023/04/13 05:13:59;;;;;;;;;7.00;2.00;;;;;9.62;100.00;99823.06;5050333;28;28491;-82
2023/04/13 05:16:33;;;;;;;;;2.67;2.67;;;;;9.61;100.00;99819.53;5049541;28;27906;-83
2023/04/13 05:18:58;;;;;;;;;6.33;3.33;;;;;9.66;100.00;99846.09;5049209;28;31691;-83
2023/04/13 05:21:25;;;;;;;;;6.00;3.00;;;;;9.81;100.00;99847.91;5050027;28;28745;-82
2023/04/13 05:23:51;;;;;;;;;5.00;2.00;;;;;9.67;100.00;99850.50;5049197;28;28506;-82
2023/04/13 05:26:19;;;;;;;;;3.67;2.67;;;;;9.78;100.00;99853.22;5049508;28;28488;-82
2023/04/13 05:28:45;;;;;;;;;13.00;6.67;;;;;9.75;100.00;99855.84;5067080;28;29084;-83
2023/04/13 05:31:10;;;;;;;;;2.67;2.33;;;;;9.75;100.00;99858.50;5048753;28;28632;-82
2023/04/13 05:33:36;;;;;;;;;6.33;3.00;;;;;9.84;100.00;99860.28;5048558;28;28465;-83
2023/04/13 05:36:05;;;;;;;;;6.00;2.67;;;;;9.93;100.00;99868.28;5067701;28;27884;-83
2023/04/13 05:38:30;;;;;;;;;2.67;2.33;;;;;9.89;100.00;99862.06;5050854;28;30737;-82
2023/04/13 05:40:57;;;;;;;;;3.00;3.00;;;;;9.96;100.00;99870.97;5051317;28;28980;-83
2023/04/13 05:43:23;;;;;;;;;3.00;2.00;;;;;10.03;100.00;99878.06;5067523;28;28501;-82
2023/04/13 05:45:49;;;;;;;;;7.67;3.00;;;;;10.08;100.00;99871.00;5066714;28;28492;-83
2023/04/13 05:48:14;;;;;;;;;6.33;2.33;;;;;10.10;100.00;99876.28;5049950;28;29901;-83
2023/04/13 05:50:39;;;;;;;;;8.00;6.33;;;;;10.14;100.00;99878.06;5067777;28;28288;-83
2023/04/13 05:53:06;;;;;;;;;3.33;0.67;;;;;10.33;100.00;99884.34;5050058;28;28870;-83
2023/04/13 05:55:32;;;;;;;;;6.00;2.00;;;;;10.31;100.00;99881.69;5067547;28;28518;-83
2023/04/13 05:57:59;;;;;;;;;4.00;2.00;;;;;10.44;100.00;99879.03;5066735;28;28394;-84
2023/04/13 06:00:29;;;;;;;;;5.25;3.50;;;;;10.59;100.00;99876.41;5067518;28;28499;-82
2023/04/13 06:02:58;;;;;;;;;4.00;1.75;;;;;10.48;100.00;99870.19;5068549;28;28596;-84
2023/04/13 06:05:23;;;;;;;;;7.00;3.67;;;;;10.62;100.00;99881.69;5067664;28;28654;-83
2023/04/13 06:07:49;;;;;;;;;4.00;3.00;;;;;10.64;100.00;99873.72;5067630;28;29125;-83
2023/04/13 06:10:15;;;;;;;;;8.67;7.00;;;;;10.64;100.00;99887.91;5048079;28;28670;-84
2023/04/13 06:12:49;;;;;;;;;6.33;3.67;;;;;10.76;100.00;99889.69;5067596;28;28455;-83
2023/04/13 06:15:18;;;;;;;;;6.00;3.00;;;;;10.65;100.00;99883.50;5049765;28;28023;-83
2023/04/13 06:17:43;;;;;;;;;7.00;5.33;;;;;10.63;100.00;99888.81;5049395;28;30833;-82
2023/04/13 06:20:10;;;;;;;;;3.00;2.00;;;;;10.77;100.00;99902.09;5066286;28;28469;-83
2023/04/13 06:22:35;;;;;;;;;6.00;2.00;;;;;10.79;100.00;99900.31;5047653;28;28553;-83
2023/04/13 06:25:01;;;;;;;;;2.00;2.00;;;;;10.96;100.00;99894.97;5058137;28;28564;-83
2023/04/13 06:27:28;;;;;;;;;11.00;4.33;;;;;11.08;100.00;99896.75;5045536;28;29805;-82
2023/04/13 06:30:06;;;;;;;;;7.00;3.00;;;;;11.25;100.00;99904.69;5044185;28;28746;-82
2023/04/13 06:32:31;;;;;;;;;3.67;2.67;;;;;11.05;100.00;99886.09;5047096;28;28769;-83
2023/04/13 06:34:57;;;;;;;;;5.67;3.00;;;;;11.07;100.00;99901.19;5045638;28;28469;-82
2023/04/13 06:37:23;;;;;;;;;3.67;3.67;;;;;11.16;100.00;99900.28;5042386;28;30249;-84
2023/04/13 06:39:52;;;;;;;;;5.67;3.67;;;;;11.28;100.00;99883.41;5043806;28;28490;-83
2023/04/13 06:42:17;;;;;;;;;1.33;1.33;;;;;11.29;100.00;99894.06;5045010;28;28514;-84
2023/04/13 06:44:43;;;;;;;;;3.00;3.00;;;;;11.39;100.00;99902.88;5054141;28;28493;-83
2023/04/13 06:47:08;;;;;;;;;2.00;2.00;;;;;11.51;100.00;99904.63;5048670;28;30226;-82
2023/04/13 06:49:34;;;;;;;;;7.67;3.67;;;;;11.63;100.00;99907.22;5068200;28;27918;-83
2023/04/13 06:52:00;;;;;;;;;2.00;2.00;;;;;11.60;100.00;99884.16;5049569;28;28600;-84
2023/04/13 06:54:25;;;;;;;;;3.00;2.00;;;;;11.70;100.00;99893.03;5049088;28;28404;-85
2023/04/13 06:56:50;;;;;;;;;2.33;2.00;;;;;11.85;100.00;99913.38;5066747;28;28454;-83
2023/04/13 06:59:16;;;;;;;;;2.67;2.00;;;;;11.96;100.00;99910.69;5067651;28;28448;-84
2023/04/13 07:01:50;;;;;;;;;3.00;2.67;;;;;12.10;100.00;99914.19;5067610;28;27846;-84
2023/04/13 07:04:15;;;;;;;;;4.67;3.00;;;;;12.18;100.00;99911.47;5050502;28;27904;-83
2023/04/13 07:06:44;;;;;;;;;5.00;3.00;;;;;12.41;100.00;99909.53;5068418;28;28381;-84
2023/04/13 07:09:10;;;;;;;;;7.67;3.33;;;;;12.36;100.00;99911.34;5050305;28;29486;-85
2023/04/13 07:11:38;;;;;;;;;9.00;4.00;;;;;12.42;100.00;99910.41;5068086;28;27923;-84
2023/04/13 07:14:04;;;;;;;;;2.67;2.67;;;;;12.43;100.00;99906.84;5051718;28;28584;-86
2023/04/13 07:16:30;;;;;;;;;7.67;3.33;;;;;12.61;100.00;99906.72;5049104;28;28573;-85
2023/04/13 07:19:05;;;;;;;;;3.67;2.67;;;;;12.56;100.00;99911.22;5066643;28;27814;-83
2023/04/13 07:21:32;;;;;;;;;3.33;3.33;;;;;12.61;100.00;99911.19;5067076;28;27841;-83
2023/04/13 07:23:58;;;;;;;;;4.00;3.00;;;;;12.75;100.00;99919.97;5049396;28;28688;-83
2023/04/13 07:26:23;;;;;;;;;3.00;3.00;;;;;12.76;100.00;99908.38;5070359;28;30598;-85
2023/04/13 07:28:48;;;;;;;;;4.67;3.00;;;;;12.84;100.00;99916.31;5064828;28;28529;-84
2023/04/13 07:31:19;;;;;;;;;3.67;3.67;;;;;12.90;100.00;99932.28;5069192;28;28806;-84
2023/04/13 07:33:44;;;;;;;;;3.00;3.00;;;;;12.93;100.00;99932.25;5064876;28;27980;-82
2023/04/13 07:36:10;;;;;;;;;2.33;2.33;;;;;12.99;100.00;99932.22;5049819;28;29919;-84
2023/04/13 07:38:38;;;;;;;;;1.33;1.33;;;;;13.10;100.00;99931.22;5048736;28;28351;-84
2023/04/13 07:41:04;;;;;;;;;2.00;2.00;;;;;13.11;100.00;99916.97;5048250;28;28304;-85
2023/04/13 07:43:29;;;;;;;;;3.67;2.33;;;;;13.26;100.00;99930.16;5051062;28;27823;-82
2023/04/13 07:46:00;;;;;;;;;5.00;4.00;;;;;13.52;100.00;99929.06;5051740;28;28591;-83
2023/04/13 07:48:31;;;;;;;;;1.00;1.00;;;;;13.63;100.00;99927.13;5046583;28;28605;-85
2023/04/13 07:51:01;;;;;;;;;7.33;3.00;;;;;13.57;100.00;99938.81;5044418;28;27880;-85
2023/04/13 07:53:33;;;;;;;;;3.00;3.00;;;;;13.78;100.00;99945.66;5030386;28;27877;-85
2023/04/13 07:56:01;;;;;;;;;1.00;1.00;;;;;13.54;100.00;99932.59;5028943;28;28357;-85
2023/04/13 07:58:34;;;;;;;;;3.25;2.00;;;;;13.80;100.00;99941.19;5032581;28;27975;-86
2023/04/13 08:01:01;;;;;;;;;3.75;3.00;;;;;13.60;100.00;99921.84;5061723;28;28705;-84
2023/04/13 08:03:33;;;;;;;;;4.00;3.00;;;;;13.89;100.00;99939.31;5034446;28;28542;-83
2023/04/13 08:05:59;;;;;;;;;3.75;2.25;;;;;13.78;100.00;99932.31;5048976;28;29697;-84
2023/04/13 08:08:57;;;;;;;;;4.00;3.00;;;;;14.12;100.00;99961.31;5049599;28;28552;-86
2023/04/13 08:11:33;;;;;;;;;3.00;2.75;;;;;14.24;100.00;99957.59;5046562;28;27912;-83
2023/04/13 08:14:22;;;;;;;;;3.67;2.67;;;;;14.32;100.00;99960.13;5031593;28;28092;-85
2023/04/13 08:16:48;;;;;;;;;4.50;4.50;;;;;14.16;100.00;99967.50;5033411;28;30028;-84
2023/04/13 08:19:14;;;;;;;;;4.00;1.33;;;;;14.10;100.00;99947.06;5038258;28;28601;-85
2023/04/13 08:21:43;;;;;;;;;3.00;3.00;;;;;14.26;100.00;99976.25;5047731;28;27955;-85
2023/04/13 08:24:10;;;;;;;;;2.50;2.50;;;;;14.31;100.00;99953.91;5042176;28;27907;-84
2023/04/13 08:26:36;;;;;;;;;5.33;3.33;;;;;14.23;100.00;99968.28;5033291;28;28243;-83
2023/04/13 08:29:05;;;;;;;;;4.00;4.00;;;;;14.42;100.00;99967.13;5055518;28;28402;-85
2023/04/13 08:31:37;;;;;;;;;3.75;2.50;;;;;14.34;100.00;99969.00;5048917;28;28694;-86
2023/04/13 08:34:03;;;;;;;;;4.00;1.00;;;;;14.33;100.00;99956.56;5050260;28;27972;-83
2023/04/13 08:36:29;;;;;;;;;4.00;4.00;;;;;14.35;100.00;99981.50;5049109;28;28388;-83
2023/04/13 08:38:55;;;;;;;;;5.67;3.67;;;;;14.44;100.00;99970.69;5065821;28;28023;-83
2023/04/13 08:41:24;;;;;;;;;6.33;5.00;;;;;14.65;100.00;99977.53;5053216;28;28450;-85
2023/04/13 08:43:50;;;;;;;;;4.33;2.00;;;;;14.74;100.00;99982.72;5071398;28;28448;-83
2023/04/13 08:46:18;;;;;;;;;5.25;2.25;;;;;14.72;100.00;99984.53;5054106;28;29844;-84
2023/04/13 08:48:48;;;;;;;;;2.00;2.00;;;;;14.84;100.00;99978.13;5072469;28;27923;-83
2023/04/13 08:51:17;;;;;;;;;3.00;3.00;;;;;14.76;100.00;99972.00;5046962;28;28431;-84
2023/04/13 08:53:42;;;;;;;;;4.25;4.00;;;;;14.93;100.00;99971.75;5074079;28;27923;-83
2023/04/13 08:56:13;;;;;;;;;2.33;2.00;;;;;15.09;100.00;99964.34;5069105;28;28278;-84
2023/04/13 08:58:43;;;;;;;;;1.00;1.00;;;;;15.09;100.00;99975.03;5056065;28;28780;-84
2023/04/13 09:01:12;;;;;;;;;2.50;2.50;;;;;15.06;100.00;99985.81;5045019;28;28835;-82
2023/04/13 09:03:54;;;;;;;;;3.00;1.67;;;;;15.21;100.00;99980.22;5042630;28;28445;-83
2023/04/13 09:06:32;;;;;;;;;4.50;2.75;;;;;15.16;100.00;99984.75;5073496;28;28568;-83
2023/04/13 09:09:02;;;;;;;;;5.00;3.25;;;;;15.05;100.00;99984.94;5073786;28;27771;-84
2023/04/13 09:11:31;;;;;;;;;7.50;6.00;;;;;15.00;100.00;99987.69;5049879;28;28030;-84
2023/04/13 09:13:57;;;;;;;;;5.00;5.00;;;;;14.86;100.00;99987.03;5054435;28;28407;-84
2023/04/13 09:16:24;;;;;;;;;4.67;2.00;;;;;14.94;100.00;99987.78;5072172;28;29753;-85
2023/04/13 09:18:59;;;;;;;;;6.00;3.00;;;;;14.94;100.00;99961.00;5037249;28;27904;-83
2023/04/13 09:21:40;;;;;;;;;10.50;10.50;;;;;15.15;100.00;99980.34;5070795;28;28435;-84
2023/04/13 09:24:06;;;;;;;;;13.00;10.67;;;;;14.95;100.00;99962.78;5069035;28;28650;-84
2023/04/13 09:26:51;;;;;;;;;6.00;5.00;;;;;15.23;100.00;99978.41;5052222;28;30064;-83
2023/04/13 09:29:32;;;;;;;;;6.00;4.67;;;;;15.20;100.00;99989.16;5030850;28;28559;-84
2023/04/13 09:32:29;;;;;;;;;4.75;4.00;;;;;15.18;100.00;99974.91;5030081;28;27828;-84
2023/04/13 09:35:07;;;;;;;;;5.33;5.00;;;;;15.25;100.00;99964.97;5021371;28;28618;-85
2023/04/13 09:38:07;;;;;;;;;3.75;3.75;;;;;15.39;100.00;99974.53;5029758;28;28712;-84
2023/04/13 09:40:46;;;;;;;;;11.00;9.67;;;;;15.24;100.00;99969.44;5023377;28;28438;-84
2023/04/13 09:43:12;;;;;;;;;13.50;10.75;;;;;15.24;100.00;99971.25;5028288;28;28458;-83
2023/04/13 09:45:47;;;;;;;;;12.00;12.00;;;;;15.27;100.00;99989.94;5033274;28;28320;-85
2023/04/13 09:48:46;;;;;;;;;15.00;11.00;;;;;15.35;100.00;99978.19;5033379;28;28375;-86
2023/04/13 09:53:59;;;;;;;;;10.00;10.00;;;;;15.72;100.00;99972.16;5201042;23;28861;-85
2023/04/13 09:57:02;;;;;;;;;12.67;11.00;;;;;16.20;100.00;99987.31;5084774;23;27908;-83
2023/04/13 09:59:35;;;;;;;;;19.67;13.33;;;;;16.23;100.00;99952.34;5028803;28;29843;-85
2023/04/13 10:04:58;;;;;;;;;10.25;10.25;;;;;16.37;100.00;99986.94;5010788;28;27932;-85
2023/04/13 10:07:28;;;;;;;;;4.50;4.00;;;;;16.16;100.00;99961.47;5010177;28;28246;-86
2023/04/13 10:10:20;;;;;;;;;8.67;8.67;;;;;16.10;100.00;99945.50;5013635;28;30212;-85
2023/04/13 10:12:59;;;;;;;;;6.00;6.00;;;;;16.17;100.00;99969.44;4953180;28;28880;-84
2023/04/13 10:15:45;;;;;;;;;2.25;2.00;;;;;16.22;100.00;99972.06;4949321;28;27933;-85
2023/04/13 10:18:32;;;;;;;;;2.00;1.00;;;;;16.23;100.00;99975.63;4931832;28;27887;-87
2023/04/13 10:21:02;;;;;;;;;1.33;1.33;;;;;16.23;100.00;99968.44;4932741;28;29740;-86
2023/04/13 10:26:43;;;;;;;;;2.50;1.50;;;;;16.10;96.53;99951.75;4942220;28;28382;-85
2023/04/13 10:29:13;;;;;;;;;1.33;1.33;;;;;16.24;100.00;99964.88;4927017;28;27963;-85
2023/04/13 10:32:06;;;;;;;;;2.50;2.00;;;;;16.11;100.00;99957.97;4949476;28;28126;-83
2023/04/13 10:34:38;;;;;;;;;2.75;2.75;;;;;16.02;100.00;99980.53;4936243;28;28530;-86
2023/04/13 10:37:29;;;;;;;;;3.25;1.75;;;;;15.96;100.00;99981.53;4951630;28;28518;-84
2023/04/13 10:43:26;;;;;;;;;3.00;3.00;;;;;16.10;100.00;99956.22;4937697;28;28409;-83
2023/04/13 10:46:30;;;;;;;;;3.00;2.00;;;;;16.53;100.00;99979.44;4942194;28;29568;-85
2023/04/13 10:54:06;;;;;;;;;2.33;1.00;;;;;16.33;100.00;100001.34;5074030;23;29105;-84
2023/04/13 10:56:33;;;;;;;;;1.25;1.25;;;;;16.16;100.00;99999.91;5125374;22;28015;-83
2023/04/13 11:07:38;;;;;;;;;3.50;1.00;;;;;14.65;100.00;99985.56;739576;26;28436;-85
2023/04/13 11:10:32;;;;;;;;;1.00;1.00;;;;;14.46;100.00;99997.38;5030367;28;28655;-84
2023/04/13 11:13:03;;;;;;;;;1.00;1.00;;;;;14.15;100.00;99960.38;5031447;28;28077;-84
2023/04/13 11:15:40;;;;;;;;;6.00;5.00;;;;;14.38;100.00;99968.06;5015629;28;29929;-83
2023/04/13 11:18:09;;;;;;;;;6.33;6.33;;;;;14.71;100.00;99984.59;5071275;22;28499;-84
2023/04/13 11:21:06;;;;;;;;;3.00;1.50;;;;;14.88;100.00;99982.53;5021553;28;28616;-85
2023/04/13 11:23:54;;;;;;;;;4.33;3.00;;;;;15.47;100.00;99984.22;5031856;28;28443;-83
2023/04/13 11:26:34;;;;;;;;;1.25;1.25;;;;;15.75;100.00;99966.75;5014374;28;28456;-84
2023/04/13 11:29:05;;;;;;;;;2.00;2.00;;;;;15.96;100.00;99975.28;5014698;28;29612;-84
2023/04/13 11:31:37;;;;;;;;;3.00;3.00;;;;;16.12;100.00;99935.63;5032439;28;28362;-82
2023/04/13 11:34:08;;;;;;;;;2.33;2.33;;;;;16.43;100.00;99975.19;5033955;28;28380;-84
2023/04/13 11:36:38;;;;;;;;;4.00;3.00;;;;;16.59;100.00;99941.72;5035052;28;29638;-84
2023/04/13 11:39:13;;;;;;;;;2.25;2.00;;;;;16.69;100.00;99954.00;5047318;28;28776;-84
2023/04/13 11:41:40;;;;;;;;;1.25;1.25;;;;;16.46;100.00;99943.81;5013124;28;28910;-85
2023/04/13 11:44:26;;;;;;;;;3.75;3.50;;;;;16.68;100.00;99989.78;5018343;28;27981;-85
2023/04/13 11:46:56;;;;;;;;;6.50;1.25;;;;;16.44;100.00;99972.47;5021110;28;30072;-84
2023/04/13 11:50:09;;;;;;;;;2.00;2.00;;;;;16.34;100.00;100003.09;5034291;28;28502;-84
2023/04/13 11:52:45;;;;;;;;;2.25;1.75;;;;;15.93;98.36;99996.78;4929882;28;29500;-83
2023/04/13 11:55:12;;;;;;;;;0.60;0.60;;;;;15.39;100.00;99992.38;4928870;29;27940;-83
2023/04/13 11:57:47;;;;;;;;;3.00;1.40;;;;;15.18;100.00;99989.19;4921773;29;28555;-84
2023/04/13 12:00:55;;;;;;;;;3.25;2.00;;;;;14.87;100.00;99990.59;4914121;28;28566;-83
2023/04/13 12:06:38;;;;;;;;;3.00;2.00;;;;;14.56;100.00;99948.22;4708798;26;29153;-84
2023/04/13 12:09:15;;;;;;;;;0.80;0.80;;;;;14.89;100.00;99975.41;4974772;28;29983;-83
2023/04/13 12:11:52;;;;;;;;;2.75;1.25;;;;;14.80;100.00;99936.25;4944939;28;28520;-83
2023/04/13 12:14:27;;;;;;;;;3.00;3.00;;;;;15.04;100.00;99956.38;4994317;28;27901;-85
2023/04/13 12:17:09;;;;;;;;;2.00;1.50;;;;;15.23;100.00;99970.38;4989376;28;28621;-83